Time;durP1;ratioP1;P1;durP2;ratioP2;P2;SDS_P1;SDS_P2;PMS_P1;PMS_P2;Temp;Humidity;BMP_temperature;BMP_pressure;BME280_temperature;BME280_humidity;BME280_pressure;Samples;Min_cycle;Max_cycle;Signal;HPM_P1;HPM_P2
2021/12/17 00:04:03;;;;;;;95.03;53.00;;;;;;;3.48;79.74;95105.26;1670190;84;20965;-52
2021/12/17 00:08:54;;;;;;;97.37;54.25;;;;;;;3.71;79.73;95107.11;1681264;83;21158;-53
2021/12/17 00:11:21;;;;;;;88.50;54.35;;;;;;;3.71;79.47;95098.95;1705549;83;21175;-53
2021/12/17 00:13:48;;;;;;;84.45;46.08;;;;;;;3.74;79.98;95102.27;1702359;83;21504;-53
2021/12/17 00:16:21;;;;;;;79.45;46.80;;;;;;;3.87;79.65;95097.16;1686112;83;20985;-52
2021/12/17 00:19:50;;;;;;;69.22;42.78;;;;;;;3.89;79.23;95092.85;1693511;83;21367;-53
2021/12/17 00:48:50;;;;;;;40.52;26.37;;;;;;;4.44;78.18;95084.17;1704599;83;21178;-53
2021/12/17 00:53:50;;;;;;;39.50;24.10;;;;;;;4.66;77.42;95083.44;1701682;83;21610;-53
2021/12/17 00:56:22;;;;;;;42.65;28.30;;;;;;;4.62;76.93;95083.45;1697095;83;21437;-53
2021/12/17 00:58:50;;;;;;;33.80;21.48;;;;;;;4.55;76.75;95075.92;1704142;83;21464;-53
2021/12/17 01:01:19;;;;;;;22.82;17.05;;;;;;;4.52;77.03;95090.34;1692413;83;21156;-54
2021/12/17 01:03:47;;;;;;;24.52;16.40;;;;;;;4.55;77.07;95082.16;1688128;83;21080;-54
2021/12/17 01:06:14;;;;;;;18.55;14.20;;;;;;;4.61;76.90;95076.46;1703013;83;21000;-54
2021/12/17 01:08:41;;;;;;;18.60;14.53;;;;;;;4.59;76.53;95072.00;1674269;83;21103;-53
2021/12/17 01:11:13;;;;;;;23.30;18.12;;;;;;;4.55;76.90;95076.71;1679625;84;21140;-52
2021/12/17 01:13:59;;;;;;;26.68;16.85;;;;;;;4.51;76.52;95071.09;1689577;83;21638;-53
2021/12/17 01:16:28;;;;;;;35.50;22.58;;;;;;;4.38;76.68;95078.21;1690901;83;20989;-53
2021/12/17 01:19:25;;;;;;;34.00;22.07;;;;;;;4.27;76.78;95067.96;1716078;83;21440;-53
2021/12/17 01:24:48;;;;;;;37.63;22.67;;;;;;;4.29;77.43;95070.48;1676302;83;21040;-53
2021/12/17 01:36:06;;;;;;;24.00;17.23;;;;;;;4.29;77.02;95066.40;1663680;84;21028;-53
2021/12/17 01:43:54;;;;;;;26.62;18.92;;;;;;;4.21;77.13;95055.95;1684146;83;21444;-53
2021/12/17 01:46:26;;;;;;;30.88;19.62;;;;;;;4.15;77.19;95060.25;1699439;83;21521;-53
2021/12/17 02:00:10;;;;;;;34.53;21.00;;;;;;;3.84;78.43;95054.41;1653452;86;21120;-53
2021/12/17 02:02:51;;;;;;;44.53;28.80;;;;;;;3.85;78.54;95043.72;1700247;83;21000;-52
2021/12/17 02:05:26;;;;;;;37.20;23.90;;;;;;;3.87;78.65;95051.66;1697926;83;21047;-54
2021/12/17 02:07:56;;;;;;;33.88;22.10;;;;;;;3.95;78.55;95040.94;1693132;83;21174;-53
2021/12/17 02:32:17;;;;;;;36.53;19.48;;;;;;;4.11;77.32;95034.43;1692417;83;21571;-53
2021/12/17 02:37:18;;;;;;;25.15;14.18;;;;;;;4.19;77.10;95033.20;1694616;83;21576;-52
2021/12/17 02:40:21;;;;;;;17.85;12.53;;;;;;;4.18;77.11;95027.56;1630046;86;20993;-54
2021/12/17 02:45:33;;;;;;;24.25;14.20;;;;;;;4.22;76.96;95025.59;1684863;83;21541;-53
2021/12/17 02:48:10;;;;;;;23.57;15.83;;;;;;;4.17;76.69;95021.94;1707955;83;21168;-52
2021/12/17 02:50:48;;;;;;;14.93;10.23;;;;;;;4.07;76.37;95025.48;1690000;82;20965;-53
2021/12/17 02:53:16;;;;;;;39.67;19.90;;;;;;;4.08;74.78;95030.36;1688552;83;21028;-53
2021/12/17 02:55:52;;;;;;;39.03;20.45;;;;;;;4.14;74.41;95024.67;1690023;83;21076;-53
2021/12/17 02:58:21;;;;;;;44.13;19.90;;;;;;;4.15;74.56;95028.37;1704149;83;21071;-53
2021/12/17 03:00:48;;;;;;;46.00;23.00;;;;;;;4.11;74.83;95016.73;1695157;83;21142;-53
2021/12/17 03:03:17;;;;;;;62.85;36.55;;;;;;;4.09;75.38;95017.69;1709486;83;21011;-53
2021/12/17 03:05:44;;;;;;;63.50;35.92;;;;;;;4.16;75.62;95019.59;1684798;83;21532;-54
2021/12/17 03:08:14;;;;;;;65.08;38.13;;;;;;;4.30;75.60;95021.66;1683788;83;21044;-52
2021/12/17 03:10:47;;;;;;;65.00;36.83;;;;;;;4.41;75.11;95019.61;1688724;83;21061;-53
2021/12/17 03:13:17;;;;;;;56.75;34.48;;;;;;;4.43;74.82;95006.36;1692290;83;21048;-53
2021/12/17 03:15:52;;;;;;;48.40;30.50;;;;;;;4.38;74.68;95007.40;1696217;83;21072;-53
2021/12/17 03:23:49;;;;;;;31.77;20.45;;;;;;;4.22;74.89;94987.47;1668899;83;21068;-53
2021/12/17 03:26:25;;;;;;;22.80;16.02;;;;;;;4.18;74.85;94989.45;1683196;83;21836;-53
2021/12/17 03:29:02;;;;;;;22.60;14.75;;;;;;;4.19;75.11;94981.47;1679569;83;21095;-53
2021/12/17 03:31:30;;;;;;;20.02;12.70;;;;;;;4.23;75.02;94980.84;1664883;83;21076;-53
2021/12/17 03:34:34;;;;;;;24.40;17.90;;;;;;;4.20;75.23;94987.09;1678343;83;21115;-52
2021/12/17 03:36:36;;;;;;;11.25;9.35;;;;;;;4.20;75.43;94978.93;1687907;83;21063;-53
2021/12/17 03:39:02;;;;;;;24.57;15.50;;;;;;;4.26;74.91;94973.84;1678552;83;21163;-53
2021/12/17 03:41:37;;;;;;;27.58;18.80;;;;;;;4.28;74.62;94957.87;1695859;83;20976;-53
2021/12/17 03:44:07;;;;;;;21.60;15.55;;;;;;;4.24;74.36;94966.05;1679455;83;21035;-52
2021/12/17 03:46:36;;;;;;;17.37;14.18;;;;;;;4.20;74.28;94968.04;1685366;83;21488;-55
2021/12/17 03:49:03;;;;;;;15.88;12.03;;;;;;;4.14;74.66;94968.86;1712333;83;21538;-53
2021/12/17 03:51:30;;;;;;;16.75;10.65;;;;;;;4.12;75.04;94969.86;1704847;83;21970;-53
2021/12/17 03:53:59;;;;;;;12.75;11.35;;;;;;;4.15;75.12;94971.20;1694634;83;20991;-53
2021/12/17 03:56:26;;;;;;;21.33;14.90;;;;;;;4.23;75.13;94969.20;1688392;83;21000;-53
2021/12/17 03:58:57;;;;;;;25.95;16.25;;;;;;;4.34;74.82;94970.66;1687895;83;21110;-54
2021/12/17 04:01:25;;;;;;;11.35;8.78;;;;;;;4.39;74.29;94972.18;1702260;83;21051;-54
2021/12/17 04:03:52;;;;;;;14.43;9.13;;;;;;;4.40;74.43;94966.31;1703876;83;21166;-52
2021/12/17 04:06:22;;;;;;;20.30;11.68;;;;;;;4.41;74.41;94969.83;1697178;83;21044;-53
2021/12/17 04:09:09;;;;;;;21.75;11.70;;;;;;;4.44;74.46;94972.50;1678037;83;21519;-53
2021/12/17 04:11:43;;;;;;;13.83;9.58;;;;;;;4.47;74.26;94969.00;1675730;83;20981;-52
2021/12/17 04:14:11;;;;;;;10.48;8.15;;;;;;;4.49;74.11;94965.28;1707509;83;21457;-54
2021/12/17 04:16:45;;;;;;;11.57;8.78;;;;;;;4.53;73.81;94956.48;1692294;83;21926;-53
2021/12/17 04:19:12;;;;;;;11.73;8.95;;;;;;;4.46;73.77;94953.80;1683500;83;21205;-53
2021/12/17 04:21:42;;;;;;;14.58;10.25;;;;;;;4.42;73.81;94958.52;1708575;83;20980;-54
2021/12/17 04:24:08;;;;;;;13.25;10.23;;;;;;;4.31;73.54;94966.02;1713018;83;21460;-54
2021/12/17 04:26:35;;;;;;;19.87;12.45;;;;;;;4.27;73.60;94969.33;1695994;83;21096;-53
2021/12/17 04:29:06;;;;;;;19.05;13.58;;;;;;;4.16;73.71;94971.38;1705032;83;21212;-53
2021/12/17 04:31:36;;;;;;;28.57;18.52;;;;;;;4.03;74.09;94963.50;1702444;83;21060;-54
2021/12/17 04:34:03;;;;;;;28.23;19.15;;;;;;;3.94;74.36;94961.83;1702228;83;21063;-52
2021/12/17 04:36:35;;;;;;;33.15;23.38;;;;;;;3.93;74.88;94977.97;1696827;83;20985;-52
2021/12/17 04:39:04;;;;;;;49.23;25.35;;;;;;;4.00;75.28;94963.52;1713112;83;21056;-53
2021/12/17 04:46:35;;;;;;;38.70;25.82;;;;;;;4.00;75.59;94964.30;1671923;84;21056;-53
2021/12/17 04:57:27;;;;;;;33.30;22.48;;;;;;;4.36;75.34;94954.69;1705214;83;21004;-54
2021/12/17 04:59:51;;;;;;;30.72;20.85;;;;;;;4.29;75.09;94946.59;1685496;83;20984;-54
2021/12/17 05:02:19;;;;;;;20.97;15.05;;;;;;;4.17;75.31;94956.59;1693248;83;21016;-53
2021/12/17 05:04:53;;;;;;;21.55;15.53;;;;;;;4.07;75.35;94951.98;1707294;83;21550;-52
2021/12/17 05:07:23;;;;;;;20.37;15.65;;;;;;;3.95;75.74;94938.88;1676381;83;21886;-54
2021/12/17 05:20:52;;;;;;;14.83;11.93;;;;;;;3.82;74.22;94948.68;1687700;83;20945;-53
2021/12/17 05:23:23;;;;;;;15.75;11.28;;;;;;;3.89;73.87;94946.50;1707185;83;20960;-53
2021/12/17 05:25:52;;;;;;;10.00;6.97;;;;;;;3.93;73.62;94942.59;1712340;83;20972;-54
2021/12/17 05:28:20;;;;;;;16.85;11.40;;;;;;;3.94;69.42;94955.02;1709226;83;21095;-54
2021/12/17 05:30:49;;;;;;;13.98;11.60;;;;;;;4.01;69.65;94943.28;1704569;83;21016;-51
2021/12/17 05:33:20;;;;;;;15.15;12.68;;;;;;;4.08;70.14;94939.17;1684695;83;21009;-53
2021/12/17 05:35:47;;;;;;;16.27;11.93;;;;;;;4.09;70.42;94940.72;1691189;83;21583;-53
2021/12/17 05:38:18;;;;;;;15.40;11.18;;;;;;;4.08;69.57;94946.73;1694322;83;21062;-55
2021/12/17 05:40:46;;;;;;;8.25;6.20;;;;;;;4.08;69.78;94950.06;1705214;83;21527;-56
2021/12/17 05:43:14;;;;;;;6.17;5.30;;;;;;;4.05;68.75;94961.75;1697407;83;21063;-55
2021/12/17 05:48:28;;;;;;;9.10;6.08;;;;;;;4.05;70.11;94950.27;1705838;83;21488;-53
2021/12/17 05:50:59;;;;;;;20.62;13.48;;;;;;;4.12;70.57;94951.59;1687856;83;21494;-58
2021/12/17 05:53:28;;;;;;;21.07;13.10;;;;;;;4.17;70.29;94945.70;1707456;83;21047;-54
2021/12/17 05:55:56;;;;;;;17.42;12.58;;;;;;;4.16;70.09;94939.28;1698735;83;21120;-54
2021/12/17 05:58:25;;;;;;;20.70;13.53;;;;;;;4.09;70.33;94926.50;1703705;83;21088;-51
2021/12/17 06:00:51;;;;;;;27.07;18.48;;;;;;;3.99;70.73;94923.86;1713178;83;20976;-52
2021/12/17 06:03:35;;;;;;;58.42;40.67;;;;;;;3.97;70.92;94921.56;1696837;83;21118;-53
2021/12/17 06:06:04;;;;;;;33.25;25.10;;;;;;;3.96;71.17;94926.82;1680034;83;21195;-52
2021/12/17 06:08:31;;;;;;;22.58;15.65;;;;;;;3.93;71.28;94928.20;1709507;83;20972;-55
2021/12/17 06:10:58;;;;;;;19.40;13.40;;;;;;;3.92;71.15;94931.52;1681840;83;21142;-55
2021/12/17 06:13:25;;;;;;;38.10;27.17;;;;;;;4.02;70.28;94923.84;1700786;83;21026;-52
2021/12/17 06:15:56;;;;;;;45.28;27.75;;;;;;;4.08;69.58;94929.04;1700922;83;21502;-52
2021/12/17 06:18:23;;;;;;;105.58;66.70;;;;;;;4.16;69.25;94926.46;1692413;83;21366;-54
2021/12/17 06:20:50;;;;;;;31.75;19.80;;;;;;;4.16;68.99;94936.56;1687932;83;20966;-53
2021/12/17 06:23:18;;;;;;;24.72;16.65;;;;;;;4.10;68.96;94929.44;1688836;83;22227;-55
2021/12/17 06:25:46;;;;;;;14.35;12.33;;;;;;;4.01;66.94;94931.83;1686208;83;21369;-53
2021/12/17 06:28:14;;;;;;;18.42;13.03;;;;;;;3.93;65.52;94945.31;1702386;83;21089;-55
2021/12/17 06:30:42;;;;;;;37.35;27.15;;;;;;;3.96;66.33;94949.16;1694317;83;21725;-52
2021/12/17 06:33:11;;;;;;;40.15;19.02;;;;;;;3.98;67.01;94928.55;1687795;83;21014;-51
2021/12/17 06:35:38;;;;;;;22.82;13.65;;;;;;;4.00;66.16;94939.80;1661186;83;21812;-55
2021/12/17 06:38:06;;;;;;;18.52;15.65;;;;;;;3.96;66.55;94949.16;1695397;82;21088;-52
2021/12/17 06:40:34;;;;;;;20.40;13.78;;;;;;;3.85;67.34;94945.16;1698702;82;21181;-52
2021/12/17 06:43:01;;;;;;;15.80;10.40;;;;;;;3.85;67.11;94942.44;1690470;83;21627;-55
2021/12/17 06:45:48;;;;;;;38.70;23.30;;;;;;;3.88;66.85;94934.83;1695814;83;21037;-54
2021/12/17 06:48:06;;;;;;;41.33;29.63;;;;;;;3.91;66.93;94941.43;1697880;83;21384;-53
2021/12/17 07:10:35;;;;;;;38.23;25.10;;;;;;;3.75;69.47;94935.14;1689844;83;21078;-53
2021/12/17 07:21:22;;;;;;;33.15;22.45;;;;;;;3.78;70.20;94924.81;1690284;82;21055;-58
2021/12/17 07:34:15;;;;;;;23.77;15.32;;;;;;;3.74;70.56;94920.56;1687122;82;20995;-55
2021/12/17 07:38:35;;;;;;;31.55;18.67;;;;;;;3.76;70.51;94925.80;1679770;82;21053;-55
2021/12/17 07:39:14;;;;;;;31.87;19.20;;;;;;;3.75;70.61;94926.97;1668270;83;21602;-57
2021/12/17 07:41:45;;;;;;;62.35;25.62;;;;;;;3.83;71.07;94935.87;1684383;82;21140;-55
2021/12/17 07:44:13;;;;;;;45.12;24.45;;;;;;;4.00;71.27;94931.64;1671072;83;21014;-60
2021/12/17 07:46:42;;;;;;;38.33;22.87;;;;;;;4.15;71.17;94932.30;1682798;83;21108;-55
2021/12/17 07:49:09;;;;;;;34.33;21.70;;;;;;;4.27;70.91;94932.58;1682189;82;21233;-55
2021/12/17 07:51:36;;;;;;;27.13;18.15;;;;;;;4.32;70.32;94920.48;1693216;83;21161;-53
2021/12/17 07:54:06;;;;;;;42.78;24.67;;;;;;;4.26;70.02;94926.95;1682334;82;21015;-53
2021/12/17 07:56:37;;;;;;;56.05;33.48;;;;;;;4.31;69.90;94933.34;1702329;82;21502;-53
2021/12/17 07:59:06;;;;;;;32.40;19.37;;;;;;;4.38;69.69;94930.55;1681408;83;22219;-54
2021/12/17 08:01:35;;;;;;;32.45;21.60;;;;;;;4.48;69.33;94932.41;1692275;82;21120;-53
2021/12/17 08:04:03;;;;;;;31.77;20.62;;;;;;;4.53;69.00;94931.97;1706814;82;20991;-54
2021/12/17 08:06:39;;;;;;;31.02;18.87;;;;;;;4.63;68.71;94928.34;1679126;83;21351;-55
2021/12/17 08:09:13;;;;;;;38.85;23.80;;;;;;;4.69;68.46;94930.84;1685495;83;21526;-55
2021/12/17 08:11:42;;;;;;;26.50;14.85;;;;;;;4.78;68.45;94933.84;1693791;83;21021;-54
2021/12/17 08:14:14;;;;;;;18.05;13.22;;;;;;;4.76;68.02;94942.25;1680998;83;21093;-53
2021/12/17 08:16:49;;;;;;;27.20;16.32;;;;;;;4.59;68.36;94931.70;1696415;83;21020;-58
2021/12/17 08:27:28;;;;;;;30.05;17.32;;;;;;;4.18;70.48;94932.84;1674880;83;21111;-56
2021/12/17 08:32:45;;;;;;;26.17;14.93;;;;;;;4.23;71.23;94931.08;1685031;82;21222;-55
2021/12/17 08:35:15;;;;;;;31.05;16.95;;;;;;;4.31;71.20;94933.91;1694082;82;21091;-55
2021/12/17 08:37:42;;;;;;;27.87;15.72;;;;;;;4.39;71.35;94926.64;1691882;83;21539;-56
2021/12/17 08:40:10;;;;;;;39.13;24.52;;;;;;;4.51;71.10;94929.45;1690855;82;21087;-60
2021/12/17 08:42:44;;;;;;;23.15;15.85;;;;;;;4.54;70.84;94930.00;1683463;81;21063;-57
2021/12/17 08:45:13;;;;;;;25.50;18.57;;;;;;;4.57;70.66;94927.25;1710033;82;21067;-56
2021/12/17 08:47:50;;;;;;;19.52;13.03;;;;;;;4.61;70.59;94927.98;1698237;82;21040;-55
2021/12/17 08:50:27;;;;;;;18.87;13.28;;;;;;;4.67;70.36;94929.11;1617403;86;21285;-60
2021/12/17 08:52:59;;;;;;;19.05;11.78;;;;;;;4.66;70.27;94916.66;1689576;82;21702;-57
2021/12/17 08:55:26;;;;;;;19.98;12.23;;;;;;;4.65;70.26;94915.12;1691344;82;21234;-54
2021/12/17 08:57:53;;;;;;;19.52;13.53;;;;;;;4.74;70.23;94922.21;1681066;83;21144;-54
2021/12/17 09:00:20;;;;;;;17.27;11.83;;;;;;;4.81;69.84;94916.67;1690268;82;21011;-56
2021/12/17 09:02:51;;;;;;;27.42;18.57;;;;;;;4.84;69.49;94915.89;1686026;82;21096;-56
2021/12/17 09:05:39;;;;;;;45.92;27.77;;;;;;;4.88;69.93;94923.43;1649968;84;21037;-58
2021/12/17 09:08:10;;;;;;;56.35;34.58;;;;;;;4.89;70.32;94927.70;1650471;85;21193;-55
2021/12/17 09:10:44;;;;;;;55.45;33.38;;;;;;;4.83;70.59;94921.12;1668395;83;21216;-56
2021/12/17 09:13:12;;;;;;;72.78;42.27;;;;;;;4.76;71.20;94923.94;1689511;83;22022;-58
2021/12/17 09:15:40;;;;;;;59.88;37.85;;;;;;;4.77;71.68;94914.58;1679356;83;21382;-54
2021/12/17 09:18:15;;;;;;;60.90;36.30;;;;;;;4.83;71.65;94915.67;1682828;82;21065;-55
2021/12/17 09:20:51;;;;;;;73.75;44.08;;;;;;;4.83;71.88;94915.67;1672489;83;21020;-56
2021/12/17 09:23:18;;;;;;;62.05;38.45;;;;;;;4.81;72.13;94916.67;1677529;82;21118;-54
2021/12/17 09:25:47;;;;;;;47.95;29.42;;;;;;;4.83;72.29;94907.50;1672381;83;21642;-52
2021/12/17 09:28:18;;;;;;;37.58;26.48;;;;;;;4.81;72.54;94913.95;1667206;83;21176;-54
2021/12/17 09:30:47;;;;;;;44.42;29.25;;;;;;;4.74;72.50;94909.95;1672333;83;21063;-54
2021/12/17 09:33:14;;;;;;;43.35;30.57;;;;;;;4.66;72.87;94900.31;1698093;83;21040;-60
2021/12/17 09:35:46;;;;;;;44.13;31.80;;;;;;;4.57;73.02;94895.16;1682267;83;21162;-54
2021/12/17 09:38:14;;;;;;;35.15;26.95;;;;;;;4.56;73.73;94898.46;1693253;82;22248;-54
2021/12/17 09:40:43;;;;;;;30.90;24.90;;;;;;;4.66;73.55;94896.80;1681032;82;21015;-56
2021/12/17 09:43:15;;;;;;;33.85;25.15;;;;;;;4.72;73.69;94895.95;1684148;82;21113;-57
2021/12/17 09:45:42;;;;;;;36.08;26.62;;;;;;;4.70;73.56;94897.53;1615008;85;25435;-56
2021/12/17 09:48:09;;;;;;;46.53;29.92;;;;;;;4.63;73.98;94894.29;1646895;84;21160;-56
2021/12/17 09:50:36;;;;;;;35.38;23.62;;;;;;;4.70;74.03;94887.42;1643451;85;21025;-58
2021/12/17 09:53:03;;;;;;;24.57;17.48;;;;;;;4.79;73.73;94889.66;1618756;86;21046;-56
2021/12/17 09:55:31;;;;;;;34.35;21.62;;;;;;;4.78;73.46;94897.05;1591588;87;21092;-58
2021/12/17 09:58:01;;;;;;;35.73;22.22;;;;;;;4.73;73.56;94893.42;1587098;87;21074;-56
2021/12/17 10:00:28;;;;;;;27.67;17.42;;;;;;;4.70;73.40;94890.14;1585652;88;22624;-56
2021/12/17 10:02:55;;;;;;;42.43;24.45;;;;;;;4.62;73.45;94883.81;1612999;86;21054;-60
2021/12/17 10:05:31;;;;;;;26.48;18.40;;;;;;;4.52;73.74;94891.50;1609331;86;21051;-60
2021/12/17 10:08:01;;;;;;;24.55;17.55;;;;;;;4.38;74.19;94882.88;1613114;86;22531;-57
2021/12/17 10:10:41;;;;;;;28.57;18.15;;;;;;;4.31;74.69;94888.41;1610512;86;21090;-57
2021/12/17 10:13:13;;;;;;;25.55;16.75;;;;;;;4.41;75.07;94891.60;1584274;87;21187;-58
2021/12/17 10:15:45;;;;;;;20.15;14.68;;;;;;;4.44;74.60;94905.77;1581742;87;21120;-57
2021/12/17 10:18:12;;;;;;;21.48;12.85;;;;;;;4.42;74.71;94898.59;1586151;87;27360;-56
2021/12/17 10:20:53;;;;;;;31.25;18.25;;;;;;;4.34;73.74;94883.52;1581420;87;21030;-58
2021/12/17 10:23:25;;;;;;;24.40;15.20;;;;;;;4.33;73.58;94879.25;1582721;87;21466;-54
2021/12/17 10:25:53;;;;;;;27.32;18.55;;;;;;;4.35;73.82;94878.25;1586992;87;21077;-57
2021/12/17 10:28:21;;;;;;;21.73;16.45;;;;;;;4.35;73.98;94889.14;1577452;87;21101;-57
2021/12/17 10:30:55;;;;;;;16.12;12.23;;;;;;;4.39;73.79;94883.06;1582586;87;21090;-58
2021/12/17 10:33:24;;;;;;;;;;;;;;;4.41;73.55;94877.98;1576426;87;21121;-55
2021/12/17 10:35:52;;;;;;;21.25;13.93;;;;;;;4.47;73.11;94881.05;1581716;87;20210;-59
2021/12/17 10:38:23;;;;;;;17.82;13.53;;;;;;;4.50;72.99;94869.34;1578343;87;22609;-61
2021/12/17 10:43:44;;;;;;;17.48;13.20;;;;;;;4.60;72.55;94873.31;1624163;85;21465;-56
2021/12/17 10:46:19;;;;;;;26.02;17.87;;;;;;;4.66;72.29;94858.09;1634984;84;21090;-59
2021/12/17 10:54:13;;;;;;;46.42;29.55;;;;;;;4.77;71.70;94852.52;1637837;85;21157;-53
2021/12/17 10:56:51;;;;;;;47.70;26.82;;;;;;;4.68;71.56;94852.21;1626357;85;21513;-53
2021/12/17 10:59:24;;;;;;;75.32;41.18;;;;;;;4.68;71.94;94845.41;1648148;85;21124;-55
2021/12/17 11:02:04;;;;;;;95.97;50.80;;;;;;;4.63;71.76;94846.61;1625927;86;21147;-53
2021/12/17 11:04:41;;;;;;;147.15;100.02;;;;;;;4.55;71.74;94834.84;1651289;85;22414;-53
2021/12/17 11:07:16;;;;;;;48.70;34.35;;;;;;;4.49;71.14;94833.17;1644576;84;21054;-54
2021/12/17 11:10:01;;;;;;;51.45;34.30;;;;;;;4.40;70.62;94835.59;1650462;85;21007;-56
2021/12/17 11:12:35;;;;;;;38.08;26.15;;;;;;;4.35;70.85;94833.31;1649917;85;21053;-55
2021/12/17 11:15:21;;;;;;;13.40;10.28;;;;;;;4.30;69.49;94830.26;1626861;86;21055;-54
2021/12/17 11:18:02;;;;;;;17.25;10.48;;;;;;;4.26;67.06;94835.73;1620055;87;21838;-58
2021/12/17 11:20:35;;;;;;;8.68;7.72;;;;;;;4.22;66.54;94835.61;1637478;85;21573;-53
2021/12/17 11:23:07;;;;;;;9.43;8.00;;;;;;;4.22;66.25;94831.52;1657004;84;21161;-54
2021/12/17 11:25:35;;;;;;;19.67;14.03;;;;;;;4.20;65.79;94839.32;1650690;85;21109;-53
2021/12/17 11:28:03;;;;;;;16.60;10.85;;;;;;;4.20;66.25;94836.60;1658135;84;21054;-53
2021/12/17 11:30:32;;;;;;;15.72;10.95;;;;;;;4.15;66.72;94831.00;1627360;85;21174;-54
2021/12/17 11:33:01;;;;;;;11.63;9.60;;;;;;;4.10;67.12;94828.72;1652279;85;21002;-56
2021/12/17 11:35:33;;;;;;;8.05;6.72;;;;;;;4.11;67.33;94828.91;1647079;85;21021;-53
2021/12/17 11:38:03;;;;;;;15.90;10.80;;;;;;;4.09;65.81;94818.98;1646387;85;21084;-51
2021/12/17 11:40:56;;;;;;;14.20;11.93;;;;;;;4.10;65.90;94823.27;1644506;85;21090;-53
2021/12/17 11:43:48;;;;;;;26.50;14.95;;;;;;;4.18;65.83;94830.19;1645372;85;21137;-55
2021/12/17 11:46:15;;;;;;;19.95;12.70;;;;;;;4.23;65.96;94825.66;1639100;85;21114;-61
2021/12/17 11:48:55;;;;;;;17.23;11.60;;;;;;;4.25;66.08;94823.30;1651980;85;21009;-55
2021/12/17 11:51:26;;;;;;;22.65;13.90;;;;;;;4.26;65.97;94822.72;1642998;85;21052;-57
2021/12/17 12:06:12;;;;;;;48.00;27.13;;;;;;;4.19;67.36;94816.76;1795621;78;22747;-56
2021/12/17 12:08:50;;;;;;;41.23;25.30;;;;;;;4.21;67.68;94819.09;1739481;79;21147;-57
2021/12/17 12:11:22;;;;;;;37.13;24.10;;;;;;;4.19;68.23;94830.37;1776113;79;21179;-56
2021/12/17 12:13:53;;;;;;;24.45;18.90;;;;;;;4.19;68.29;94820.84;1766799;79;20977;-58
2021/12/17 12:16:23;;;;;;;24.20;14.90;;;;;;;4.22;68.23;94821.38;1757365;79;21069;-56
2021/12/17 12:18:58;;;;;;;14.78;11.93;;;;;;;4.28;68.17;94814.31;1734363;81;21069;-55
2021/12/17 12:21:29;;;;;;;19.67;11.95;;;;;;;4.26;67.84;94822.11;1733914;81;20978;-59
2021/12/17 12:24:14;;;;;;;17.52;14.90;;;;;;;4.16;68.22;94821.66;1744626;81;21536;-58
2021/12/17 12:26:49;;;;;;;10.78;8.10;;;;;;;4.11;68.60;94824.82;1738794;81;21068;-57
2021/12/17 12:29:23;;;;;;;10.93;8.13;;;;;;;4.08;68.24;94826.97;1722176;81;21026;-60
2021/12/17 12:32:13;;;;;;;10.55;8.05;;;;;;;4.00;68.32;94821.98;1740949;81;22129;-59
2021/12/17 12:34:42;;;;;;;14.40;9.48;;;;;;;3.95;68.17;94816.42;1727734;81;21009;-57
2021/12/17 12:37:26;;;;;;;9.05;7.40;;;;;;;3.90;68.32;94827.72;1740842;81;22210;-60
2021/12/17 12:40:00;;;;;;;7.20;5.87;;;;;;;3.89;68.56;94823.45;1735553;81;21050;-56
2021/12/17 12:42:32;;;;;;;6.00;5.45;;;;;;;3.94;68.29;94831.20;1737168;81;21061;-59
2021/12/17 12:45:07;;;;;;;8.10;6.42;;;;;;;3.95;68.09;94825.16;1672541;82;21698;-57
2021/12/17 12:47:44;;;;;;;12.37;8.73;;;;;;;3.91;68.24;94808.85;1726795;81;21058;-59
2021/12/17 12:50:19;;;;;;;20.10;12.23;;;;;;;3.87;68.67;94808.72;1710546;81;21850;-57
2021/12/17 12:53:10;;;;;;;15.83;12.10;;;;;;;3.83;69.40;94813.42;1686831;81;21006;-56
2021/12/17 12:55:40;;;;;;;16.17;12.78;;;;;;;3.74;70.01;94820.69;1726327;82;21078;-60
2021/12/17 12:58:11;;;;;;;13.00;11.63;;;;;;;3.64;70.95;94813.38;1706225;82;21049;-60
2021/12/17 13:00:57;;;;;;;14.73;10.53;;;;;;;3.57;71.67;94824.33;1702089;83;21091;-59
2021/12/17 13:03:26;;;;;;;16.20;12.15;;;;;;;3.54;72.21;94811.50;1698446;84;21823;-61
2021/12/17 13:05:53;;;;;;;19.30;14.58;;;;;;;3.49;72.90;94813.90;1677064;84;21031;-60
2021/12/17 13:08:25;;;;;;;37.33;25.80;;;;;;;3.43;73.00;94815.48;1660182;85;21086;-57
2021/12/17 13:10:55;;;;;;;41.30;29.48;;;;;;;3.38;73.54;94820.59;1652842;84;21098;-60
2021/12/17 13:16:14;;;;;;;30.70;21.25;;;;;;;3.47;74.20;94807.30;1657793;84;21054;-60
2021/12/17 13:24:11;;;;;;;30.62;21.48;;;;;;;3.66;74.27;94802.86;1651679;85;21121;-61
2021/12/17 13:26:35;;;;;;;34.58;22.77;;;;;;;3.75;74.13;94803.77;1649692;84;21389;-59
2021/12/17 13:29:19;;;;;;;23.62;15.78;;;;;;;3.72;72.63;94806.69;1684773;84;21225;-62
2021/12/17 13:32:11;;;;;;;10.85;8.70;;;;;;;3.58;72.67;94800.60;1631147;86;21260;-65
2021/12/17 13:34:44;;;;;;;20.17;13.45;;;;;;;3.55;71.82;94806.25;1649939;85;21101;-57
2021/12/17 13:37:24;;;;;;;18.30;10.45;;;;;;;3.62;71.57;94802.13;1639774;85;21549;-58
2021/12/17 13:39:58;;;;;;;14.83;10.30;;;;;;;3.70;70.98;94800.88;1640930;85;22459;-59
2021/12/17 13:42:33;;;;;;;19.17;13.25;;;;;;;3.68;70.35;94797.03;1644839;85;21196;-61
2021/12/17 13:45:13;;;;;;;8.55;7.60;;;;;;;3.58;69.92;94800.03;1647447;86;21146;-59
2021/12/17 13:47:50;;;;;;;30.35;26.85;;;;;;;3.48;69.49;94806.31;1670227;84;21593;-58
2021/12/17 13:50:27;;;;;;;15.45;13.32;;;;;;;3.47;69.14;94801.86;1651258;85;21635;-60
2021/12/17 13:53:00;;;;;;;14.83;12.43;;;;;;;3.52;69.11;94805.69;1646392;85;21073;-60
2021/12/17 13:55:33;;;;;;;10.03;9.10;;;;;;;3.55;69.05;94811.69;1634151;85;21169;-55
2021/12/17 13:58:04;;;;;;;7.72;7.03;;;;;;;3.57;68.23;94806.64;1676572;83;21629;-59
2021/12/17 14:00:36;;;;;;;6.17;5.67;;;;;;;3.61;68.03;94802.52;1716398;83;21135;-62
2021/12/17 14:03:03;;;;;;;8.35;5.65;;;;;;;3.64;68.02;94806.58;1708559;82;21529;-59
2021/12/17 14:05:40;;;;;;;11.30;6.97;;;;;;;3.61;67.65;94806.59;1712652;82;21116;-60
2021/12/17 14:08:08;;;;;;;12.63;8.88;;;;;;;3.61;67.78;94795.72;1704834;83;21560;-56
2021/12/17 14:10:37;;;;;;;14.53;9.30;;;;;;;3.57;67.91;94796.34;1700764;83;21038;-58
2021/12/17 14:13:05;;;;;;;21.60;14.60;;;;;;;3.53;67.92;94808.59;1704176;83;21627;-59
2021/12/17 14:15:34;;;;;;;25.10;14.90;;;;;;;3.52;68.08;94810.37;1701875;83;21430;-60
2021/12/17 14:18:07;;;;;;;29.92;18.55;;;;;;;3.54;68.22;94794.42;1708026;83;21580;-57
2021/12/17 14:20:44;;;;;;;31.57;19.70;;;;;;;3.57;68.36;94797.13;1710817;83;21189;-58
2021/12/17 14:23:18;;;;;;;32.90;23.77;;;;;;;3.58;68.69;94797.31;1725741;83;21029;-59
2021/12/17 14:25:52;;;;;;;27.15;19.65;;;;;;;3.57;69.15;94797.13;1702641;83;21005;-61
2021/12/17 14:28:30;;;;;;;16.15;10.72;;;;;;;3.49;69.79;94796.98;1705718;83;21520;-60
2021/12/17 14:31:13;;;;;;;207.92;180.40;;;;;;;3.40;69.34;94799.21;1702550;82;21101;-57
2021/12/17 14:33:48;;;;;;;26.75;20.00;;;;;;;3.41;69.51;94799.39;1744866;82;21134;-58
2021/12/17 14:36:38;;;;;;;18.42;12.25;;;;;;;3.50;69.36;94804.56;1748700;82;20988;-57
2021/12/17 14:39:17;;;;;;;18.17;11.88;;;;;;;3.48;69.47;94796.80;1748087;82;21791;-59
2021/12/17 14:41:52;;;;;;;254.23;158.30;;;;;;;3.47;69.54;94799.14;1748267;82;21548;-58
2021/12/17 14:47:21;;;;;;;25.23;17.35;;;;;;;3.49;70.23;94803.78;1748378;81;21289;-58
2021/12/17 15:06:05;;;;;;;26.87;15.98;;;;;;;2.96;73.68;94812.69;1708719;82;21096;-59
2021/12/17 15:08:32;;;;;;;17.57;12.25;;;;;;;2.96;73.94;94809.40;1711058;83;21053;-60
2021/12/17 15:11:03;;;;;;;19.55;13.00;;;;;;;2.88;74.45;94815.27;1703077;83;21058;-61
2021/12/17 15:13:31;;;;;;;16.73;13.08;;;;;;;2.84;74.95;94814.52;1706759;83;21150;-61
2021/12/17 15:15:59;;;;;;;17.60;13.48;;;;;;;2.82;74.92;94817.61;1697589;83;21050;-59
2021/12/17 15:18:26;;;;;;;13.70;9.95;;;;;;;2.79;75.58;94817.05;1705650;82;21049;-61
2021/12/17 15:20:56;;;;;;;14.90;11.10;;;;;;;2.83;75.48;94808.89;1698808;83;20998;-58
2021/12/17 15:23:23;;;;;;;22.13;16.62;;;;;;;2.72;75.55;94808.16;1700387;83;21063;-62
2021/12/17 15:25:51;;;;;;;26.68;21.57;;;;;;;2.67;76.21;94814.77;1697728;83;21217;-60
2021/12/17 15:28:23;;;;;;;14.78;10.78;;;;;;;2.74;76.49;94807.97;1698838;83;21021;-57